sensor_id;sensor_type;location;lat;lon;timestamp;P1;durP1;ratioP1;P2;durP2;ratioP2
4808;SDS011;2418;49.930;8.606;2022-12-07T00:01:15;17.50;;;12.90;;
4808;SDS011;2418;49.930;8.606;2022-12-07T00:03:43;16.45;;;12.20;;
4808;SDS011;2418;49.930;8.606;2022-12-07T00:06:10;17.25;;;12.43;;
4808;SDS011;2418;49.930;8.606;2022-12-07T00:08:37;14.83;;;12.60;;
4808;SDS011;2418;49.930;8.606;2022-12-07T00:11:07;19.60;;;13.07;;
4808;SDS011;2418;49.930;8.606;2022-12-07T00:13:35;16.98;;;12.90;;
4808;SDS011;2418;49.930;8.606;2022-12-07T00:16:05;19.45;;;12.60;;
4808;SDS011;2418;49.930;8.606;2022-12-07T00:18:35;20.17;;;13.80;;
4808;SDS011;2418;49.930;8.606;2022-12-07T00:21:02;19.05;;;12.70;;
4808;SDS011;2418;49.930;8.606;2022-12-07T00:23:29;15.73;;;11.73;;
4808;SDS011;2418;49.930;8.606;2022-12-07T00:25:55;18.40;;;13.02;;
4808;SDS011;2418;49.930;8.606;2022-12-07T00:28:20;15.13;;;11.10;;
4808;SDS011;2418;49.930;8.606;2022-12-07T00:30:46;17.10;;;12.00;;
4808;SDS011;2418;49.930;8.606;2022-12-07T00:33:11;16.23;;;12.60;;
4808;SDS011;2418;49.930;8.606;2022-12-07T00:35:37;20.02;;;12.57;;
4808;SDS011;2418;49.930;8.606;2022-12-07T00:38:02;17.35;;;13.02;;
4808;SDS011;2418;49.930;8.606;2022-12-07T00:40:28;20.45;;;13.15;;
4808;SDS011;2418;49.930;8.606;2022-12-07T00:42:55;16.98;;;12.70;;
4808;SDS011;2418;49.930;8.606;2022-12-07T00:45:20;18.05;;;13.35;;
4808;SDS011;2418;49.930;8.606;2022-12-07T00:47:46;16.83;;;12.67;;
4808;SDS011;2418;49.930;8.606;2022-12-07T00:50:12;14.90;;;11.90;;
4808;SDS011;2418;49.930;8.606;2022-12-07T00:52:38;17.70;;;12.93;;
4808;SDS011;2418;49.930;8.606;2022-12-07T00:55:04;17.53;;;12.73;;
4808;SDS011;2418;49.930;8.606;2022-12-07T00:57:30;15.45;;;12.25;;
4808;SDS011;2418;49.930;8.606;2022-12-07T00:59:56;19.08;;;12.25;;
4808;SDS011;2418;49.930;8.606;2022-12-07T01:02:22;18.83;;;13.00;;
4808;SDS011;2418;49.930;8.606;2022-12-07T01:04:48;17.95;;;12.02;;
4808;SDS011;2418;49.930;8.606;2022-12-07T01:07:14;15.80;;;11.67;;
4808;SDS011;2418;49.930;8.606;2022-12-07T01:09:40;18.60;;;12.90;;
4808;SDS011;2418;49.930;8.606;2022-12-07T01:12:05;17.47;;;11.90;;
4808;SDS011;2418;49.930;8.606;2022-12-07T01:14:31;18.17;;;12.80;;
4808;SDS011;2418;49.930;8.606;2022-12-07T01:16:57;16.63;;;12.43;;
4808;SDS011;2418;49.930;8.606;2022-12-07T01:19:24;16.67;;;12.50;;
4808;SDS011;2418;49.930;8.606;2022-12-07T01:21:49;18.00;;;12.57;;
4808;SDS011;2418;49.930;8.606;2022-12-07T01:24:15;16.80;;;12.33;;
4808;SDS011;2418;49.930;8.606;2022-12-07T01:26:41;16.13;;;12.00;;
4808;SDS011;2418;49.930;8.606;2022-12-07T01:29:06;18.25;;;13.02;;
4808;SDS011;2418;49.930;8.606;2022-12-07T01:31:32;19.45;;;12.75;;
4808;SDS011;2418;49.930;8.606;2022-12-07T01:33:59;15.57;;;11.57;;
4808;SDS011;2418;49.930;8.606;2022-12-07T01:38:53;19.70;;;13.73;;
4808;SDS011;2418;49.930;8.606;2022-12-07T01:41:21;27.67;;;15.95;;
4808;SDS011;2418;49.930;8.606;2022-12-07T01:46:39;26.35;;;15.13;;
4808;SDS011;2418;49.930;8.606;2022-12-07T01:49:18;25.58;;;16.58;;
4808;SDS011;2418;49.930;8.606;2022-12-07T01:51:50;25.67;;;15.82;;
4808;SDS011;2418;49.930;8.606;2022-12-07T01:54:17;22.45;;;14.30;;
4808;SDS011;2418;49.930;8.606;2022-12-07T01:56:47;17.85;;;13.52;;
4808;SDS011;2418;49.930;8.606;2022-12-07T01:59:17;18.67;;;13.20;;
4808;SDS011;2418;49.930;8.606;2022-12-07T02:01:46;17.10;;;12.20;;
4808;SDS011;2418;49.930;8.606;2022-12-07T02:04:11;20.17;;;14.30;;
4808;SDS011;2418;49.930;8.606;2022-12-07T02:06:37;21.27;;;13.13;;
4808;SDS011;2418;49.930;8.606;2022-12-07T02:09:03;21.65;;;13.52;;
4808;SDS011;2418;49.930;8.606;2022-12-07T02:11:29;18.02;;;13.00;;
4808;SDS011;2418;49.930;8.606;2022-12-07T02:13:56;21.73;;;14.30;;
4808;SDS011;2418;49.930;8.606;2022-12-07T02:19:37;24.23;;;13.30;;
4808;SDS011;2418;49.930;8.606;2022-12-07T02:31:01;32.50;;;18.17;;
4808;SDS011;2418;49.930;8.606;2022-12-07T02:33:42;31.98;;;17.63;;
4808;SDS011;2418;49.930;8.606;2022-12-07T02:36:19;45.60;;;21.95;;
4808;SDS011;2418;49.930;8.606;2022-12-07T02:38:56;46.30;;;23.55;;
4808;SDS011;2418;49.930;8.606;2022-12-07T02:41:27;46.92;;;23.75;;
4808;SDS011;2418;49.930;8.606;2022-12-07T02:44:07;55.60;;;25.42;;
4808;SDS011;2418;49.930;8.606;2022-12-07T02:46:42;57.80;;;26.23;;
4808;SDS011;2418;49.930;8.606;2022-12-07T02:49:11;58.50;;;29.65;;
4808;SDS011;2418;49.930;8.606;2022-12-07T02:51:44;28.17;;;17.43;;
4808;SDS011;2418;49.930;8.606;2022-12-07T02:54:17;17.23;;;12.80;;
4808;SDS011;2418;49.930;8.606;2022-12-07T03:04:55;14.18;;;11.00;;
4808;SDS011;2418;49.930;8.606;2022-12-07T03:07:38;17.55;;;12.02;;
4808;SDS011;2418;49.930;8.606;2022-12-07T03:15:36;16.00;;;11.77;;
4808;SDS011;2418;49.930;8.606;2022-12-07T03:18:22;17.63;;;12.18;;
4808;SDS011;2418;49.930;8.606;2022-12-07T03:20:51;16.05;;;12.00;;
4808;SDS011;2418;49.930;8.606;2022-12-07T03:23:22;19.02;;;12.48;;
4808;SDS011;2418;49.930;8.606;2022-12-07T03:25:51;19.88;;;12.50;;
4808;SDS011;2418;49.930;8.606;2022-12-07T03:28:22;16.83;;;12.30;;
4808;SDS011;2418;49.930;8.606;2022-12-07T03:30:56;16.27;;;10.85;;
4808;SDS011;2418;49.930;8.606;2022-12-07T03:33:39;15.60;;;11.57;;
4808;SDS011;2418;49.930;8.606;2022-12-07T03:39:03;15.48;;;11.15;;
4808;SDS011;2418;49.930;8.606;2022-12-07T03:41:42;15.53;;;11.20;;
4808;SDS011;2418;49.930;8.606;2022-12-07T03:44:08;16.77;;;10.90;;
4808;SDS011;2418;49.930;8.606;2022-12-07T03:46:44;14.73;;;10.70;;
4808;SDS011;2418;49.930;8.606;2022-12-07T03:54:34;19.15;;;12.27;;
4808;SDS011;2418;49.930;8.606;2022-12-07T03:57:04;18.05;;;11.38;;
4808;SDS011;2418;49.930;8.606;2022-12-07T03:59:31;13.90;;;11.32;;
4808;SDS011;2418;49.930;8.606;2022-12-07T04:02:01;16.42;;;11.27;;
4808;SDS011;2418;49.930;8.606;2022-12-07T04:04:28;15.35;;;10.85;;
4808;SDS011;2418;49.930;8.606;2022-12-07T04:06:54;16.85;;;10.98;;
4808;SDS011;2418;49.930;8.606;2022-12-07T04:09:20;16.88;;;11.55;;
4808;SDS011;2418;49.930;8.606;2022-12-07T04:11:45;16.20;;;10.70;;
4808;SDS011;2418;49.930;8.606;2022-12-07T04:14:11;13.52;;;10.68;;
4808;SDS011;2418;49.930;8.606;2022-12-07T04:16:43;17.33;;;11.63;;
4808;SDS011;2418;49.930;8.606;2022-12-07T04:19:09;16.05;;;10.80;;
4808;SDS011;2418;49.930;8.606;2022-12-07T04:21:35;14.27;;;11.20;;
4808;SDS011;2418;49.930;8.606;2022-12-07T04:24:01;17.77;;;11.93;;
4808;SDS011;2418;49.930;8.606;2022-12-07T04:26:26;17.27;;;11.70;;
4808;SDS011;2418;49.930;8.606;2022-12-07T04:28:52;15.83;;;11.33;;
4808;SDS011;2418;49.930;8.606;2022-12-07T04:31:17;17.43;;;11.67;;
4808;SDS011;2418;49.930;8.606;2022-12-07T04:33:43;16.37;;;11.13;;
4808;SDS011;2418;49.930;8.606;2022-12-07T04:36:09;16.10;;;11.07;;
4808;SDS011;2418;49.930;8.606;2022-12-07T04:38:34;18.43;;;11.60;;
4808;SDS011;2418;49.930;8.606;2022-12-07T04:41:06;19.13;;;11.67;;
4808;SDS011;2418;49.930;8.606;2022-12-07T04:43:33;16.35;;;11.80;;
4808;SDS011;2418;49.930;8.606;2022-12-07T04:45:59;22.55;;;13.35;;
4808;SDS011;2418;49.930;8.606;2022-12-07T04:48:25;20.83;;;13.77;;
4808;SDS011;2418;49.930;8.606;2022-12-07T04:50:52;17.90;;;12.50;;
4808;SDS011;2418;49.930;8.606;2022-12-07T04:53:18;33.95;;;18.40;;
4808;SDS011;2418;49.930;8.606;2022-12-07T04:55:44;33.33;;;16.90;;
4808;SDS011;2418;49.930;8.606;2022-12-07T04:58:10;24.37;;;15.73;;
4808;SDS011;2418;49.930;8.606;2022-12-07T05:00:37;24.17;;;16.52;;
4808;SDS011;2418;49.930;8.606;2022-12-07T05:03:03;26.73;;;17.77;;
4808;SDS011;2418;49.930;8.606;2022-12-07T05:05:28;29.87;;;18.43;;
4808;SDS011;2418;49.930;8.606;2022-12-07T05:07:54;23.20;;;15.43;;
4808;SDS011;2418;49.930;8.606;2022-12-07T05:10:19;16.90;;;13.40;;
4808;SDS011;2418;49.930;8.606;2022-12-07T05:12:45;15.87;;;13.00;;
4808;SDS011;2418;49.930;8.606;2022-12-07T05:15:11;19.83;;;13.90;;
4808;SDS011;2418;49.930;8.606;2022-12-07T05:17:37;14.65;;;11.40;;
4808;SDS011;2418;49.930;8.606;2022-12-07T05:20:03;20.50;;;13.82;;
4808;SDS011;2418;49.930;8.606;2022-12-07T05:22:29;17.45;;;12.48;;
4808;SDS011;2418;49.930;8.606;2022-12-07T05:24:55;15.05;;;11.80;;
4808;SDS011;2418;49.930;8.606;2022-12-07T05:27:21;15.25;;;13.35;;
4808;SDS011;2418;49.930;8.606;2022-12-07T05:29:47;19.05;;;13.57;;
4808;SDS011;2418;49.930;8.606;2022-12-07T05:32:12;13.60;;;12.20;;
4808;SDS011;2418;49.930;8.606;2022-12-07T05:34:39;14.93;;;11.02;;
4808;SDS011;2418;49.930;8.606;2022-12-07T05:37:04;16.05;;;11.45;;
4808;SDS011;2418;49.930;8.606;2022-12-07T05:39:30;12.70;;;10.93;;
4808;SDS011;2418;49.930;8.606;2022-12-07T05:41:56;15.18;;;11.20;;
4808;SDS011;2418;49.930;8.606;2022-12-07T05:47:06;14.32;;;10.52;;
4808;SDS011;2418;49.930;8.606;2022-12-07T05:49:33;16.23;;;10.98;;
4808;SDS011;2418;49.930;8.606;2022-12-07T05:51:58;12.40;;;10.30;;
4808;SDS011;2418;49.930;8.606;2022-12-07T05:54:24;13.93;;;10.90;;
4808;SDS011;2418;49.930;8.606;2022-12-07T05:56:50;14.90;;;10.67;;
4808;SDS011;2418;49.930;8.606;2022-12-07T05:59:16;14.38;;;10.88;;
4808;SDS011;2418;49.930;8.606;2022-12-07T06:01:47;18.83;;;12.73;;
4808;SDS011;2418;49.930;8.606;2022-12-07T06:04:15;13.40;;;11.45;;
4808;SDS011;2418;49.930;8.606;2022-12-07T06:06:42;15.45;;;11.10;;
4808;SDS011;2418;49.930;8.606;2022-12-07T06:09:09;14.67;;;11.03;;
4808;SDS011;2418;49.930;8.606;2022-12-07T06:11:35;13.48;;;10.52;;
4808;SDS011;2418;49.930;8.606;2022-12-07T06:14:19;14.60;;;10.95;;
4808;SDS011;2418;49.930;8.606;2022-12-07T06:16:45;15.88;;;11.20;;
4808;SDS011;2418;49.930;8.606;2022-12-07T06:19:10;12.85;;;10.52;;
4808;SDS011;2418;49.930;8.606;2022-12-07T06:21:36;13.30;;;10.52;;
4808;SDS011;2418;49.930;8.606;2022-12-07T06:24:02;15.55;;;10.50;;
4808;SDS011;2418;49.930;8.606;2022-12-07T06:26:28;15.02;;;10.77;;
4808;SDS011;2418;49.930;8.606;2022-12-07T06:28:53;14.03;;;10.63;;
4808;SDS011;2418;49.930;8.606;2022-12-07T06:31:19;15.83;;;10.83;;
4808;SDS011;2418;49.930;8.606;2022-12-07T06:33:49;12.18;;;10.43;;
4808;SDS011;2418;49.930;8.606;2022-12-07T06:36:15;13.27;;;10.60;;
4808;SDS011;2418;49.930;8.606;2022-12-07T06:38:41;12.80;;;10.80;;
4808;SDS011;2418;49.930;8.606;2022-12-07T06:41:06;15.27;;;11.23;;
4808;SDS011;2418;49.930;8.606;2022-12-07T06:43:32;13.53;;;10.60;;
4808;SDS011;2418;49.930;8.606;2022-12-07T06:45:59;13.52;;;10.38;;
4808;SDS011;2418;49.930;8.606;2022-12-07T06:48:24;15.10;;;10.40;;
4808;SDS011;2418;49.930;8.606;2022-12-07T06:50:50;13.70;;;10.60;;
4808;SDS011;2418;49.930;8.606;2022-12-07T06:53:16;12.30;;;9.70;;
4808;SDS011;2418;49.930;8.606;2022-12-07T06:55:41;11.88;;;10.50;;
4808;SDS011;2418;49.930;8.606;2022-12-07T06:58:07;14.20;;;10.23;;
4808;SDS011;2418;49.930;8.606;2022-12-07T07:00:32;12.70;;;10.20;;
4808;SDS011;2418;49.930;8.606;2022-12-07T07:03:00;13.77;;;10.67;;
4808;SDS011;2418;49.930;8.606;2022-12-07T07:05:26;13.60;;;10.15;;
4808;SDS011;2418;49.930;8.606;2022-12-07T07:07:51;14.15;;;10.77;;
4808;SDS011;2418;49.930;8.606;2022-12-07T07:10:17;16.67;;;11.47;;
4808;SDS011;2418;49.930;8.606;2022-12-07T07:12:42;15.53;;;10.60;;
4808;SDS011;2418;49.930;8.606;2022-12-07T07:15:09;14.07;;;10.70;;
4808;SDS011;2418;49.930;8.606;2022-12-07T07:17:37;14.85;;;11.80;;
4808;SDS011;2418;49.930;8.606;2022-12-07T07:20:03;15.85;;;11.07;;
4808;SDS011;2418;49.930;8.606;2022-12-07T07:22:30;13.82;;;10.18;;
4808;SDS011;2418;49.930;8.606;2022-12-07T07:24:56;14.32;;;10.70;;
4808;SDS011;2418;49.930;8.606;2022-12-07T07:27:23;14.80;;;11.10;;
4808;SDS011;2418;49.930;8.606;2022-12-07T07:29:50;13.50;;;10.55;;
4808;SDS011;2418;49.930;8.606;2022-12-07T07:32:17;14.98;;;11.27;;
4808;SDS011;2418;49.930;8.606;2022-12-07T07:34:43;15.32;;;11.90;;
4808;SDS011;2418;49.930;8.606;2022-12-07T07:37:08;16.20;;;11.23;;
4808;SDS011;2418;49.930;8.606;2022-12-07T07:39:35;14.80;;;11.93;;
4808;SDS011;2418;49.930;8.606;2022-12-07T07:42:02;16.63;;;11.50;;
4808;SDS011;2418;49.930;8.606;2022-12-07T07:44:28;14.07;;;11.75;;
4808;SDS011;2418;49.930;8.606;2022-12-07T07:46:54;16.83;;;11.37;;
4808;SDS011;2418;49.930;8.606;2022-12-07T07:49:19;14.20;;;11.83;;
4808;SDS011;2418;49.930;8.606;2022-12-07T07:51:46;15.32;;;11.55;;
4808;SDS011;2418;49.930;8.606;2022-12-07T07:54:11;16.47;;;12.63;;
4808;SDS011;2418;49.930;8.606;2022-12-07T07:56:37;18.40;;;12.30;;
4808;SDS011;2418;49.930;8.606;2022-12-07T07:59:03;15.80;;;11.80;;
4808;SDS011;2418;49.930;8.606;2022-12-07T08:01:28;19.50;;;13.80;;
4808;SDS011;2418;49.930;8.606;2022-12-07T08:03:55;18.00;;;13.07;;
4808;SDS011;2418;49.930;8.606;2022-12-07T08:06:24;18.73;;;14.20;;
4808;SDS011;2418;49.930;8.606;2022-12-07T08:08:50;18.02;;;13.68;;
4808;SDS011;2418;49.930;8.606;2022-12-07T08:11:15;17.90;;;13.50;;
4808;SDS011;2418;49.930;8.606;2022-12-07T08:13:41;26.47;;;14.63;;
4808;SDS011;2418;49.930;8.606;2022-12-07T08:16:09;15.67;;;11.97;;
4808;SDS011;2418;49.930;8.606;2022-12-07T08:18:36;17.42;;;12.60;;
4808;SDS011;2418;49.930;8.606;2022-12-07T08:21:03;18.90;;;12.98;;
4808;SDS011;2418;49.930;8.606;2022-12-07T08:23:31;15.45;;;11.82;;
4808;SDS011;2418;49.930;8.606;2022-12-07T08:26:00;19.00;;;13.27;;
4808;SDS011;2418;49.930;8.606;2022-12-07T08:28:27;16.02;;;12.35;;
4808;SDS011;2418;49.930;8.606;2022-12-07T08:30:58;21.40;;;14.35;;
4808;SDS011;2418;49.930;8.606;2022-12-07T08:33:27;19.65;;;14.52;;
4808;SDS011;2418;49.930;8.606;2022-12-07T08:35:52;23.50;;;15.90;;
4808;SDS011;2418;49.930;8.606;2022-12-07T08:38:18;24.70;;;15.93;;
4808;SDS011;2418;49.930;8.606;2022-12-07T08:40:52;24.02;;;15.50;;
4808;SDS011;2418;49.930;8.606;2022-12-07T08:43:22;22.88;;;16.05;;
4808;SDS011;2418;49.930;8.606;2022-12-07T08:45:51;22.33;;;15.80;;
4808;SDS011;2418;49.930;8.606;2022-12-07T08:48:27;20.23;;;13.25;;
4808;SDS011;2418;49.930;8.606;2022-12-07T08:50:53;17.42;;;13.45;;
4808;SDS011;2418;49.930;8.606;2022-12-07T08:53:18;19.67;;;13.88;;
4808;SDS011;2418;49.930;8.606;2022-12-07T08:55:45;21.30;;;14.07;;
4808;SDS011;2418;49.930;8.606;2022-12-07T08:58:16;20.58;;;13.10;;
4808;SDS011;2418;49.930;8.606;2022-12-07T09:00:42;18.88;;;12.95;;
4808;SDS011;2418;49.930;8.606;2022-12-07T09:03:10;18.83;;;12.80;;
4808;SDS011;2418;49.930;8.606;2022-12-07T09:05:38;17.35;;;12.27;;
4808;SDS011;2418;49.930;8.606;2022-12-07T09:08:04;23.17;;;13.10;;
4808;SDS011;2418;49.930;8.606;2022-12-07T09:10:31;19.63;;;13.07;;
4808;SDS011;2418;49.930;8.606;2022-12-07T09:12:58;16.52;;;13.02;;
4808;SDS011;2418;49.930;8.606;2022-12-07T09:15:26;20.30;;;13.00;;
4808;SDS011;2418;49.930;8.606;2022-12-07T09:17:56;15.03;;;12.50;;
4808;SDS011;2418;49.930;8.606;2022-12-07T09:20:21;25.80;;;14.50;;
4808;SDS011;2418;49.930;8.606;2022-12-07T09:22:48;21.75;;;14.90;;
4808;SDS011;2418;49.930;8.606;2022-12-07T09:25:14;18.60;;;12.30;;
4808;SDS011;2418;49.930;8.606;2022-12-07T09:27:40;19.13;;;12.77;;
4808;SDS011;2418;49.930;8.606;2022-12-07T09:30:06;20.75;;;14.30;;
4808;SDS011;2418;49.930;8.606;2022-12-07T09:32:32;15.60;;;11.45;;
4808;SDS011;2418;49.930;8.606;2022-12-07T09:34:59;14.77;;;11.40;;
4808;SDS011;2418;49.930;8.606;2022-12-07T09:37:25;16.13;;;12.13;;
4808;SDS011;2418;49.930;8.606;2022-12-07T09:39:51;14.90;;;10.83;;
4808;SDS011;2418;49.930;8.606;2022-12-07T09:45:04;15.68;;;11.43;;
4808;SDS011;2418;49.930;8.606;2022-12-07T09:47:36;16.50;;;11.70;;
4808;SDS011;2418;49.930;8.606;2022-12-07T09:50:05;12.98;;;11.13;;
4808;SDS011;2418;49.930;8.606;2022-12-07T09:52:37;13.10;;;11.40;;
4808;SDS011;2418;49.930;8.606;2022-12-07T09:55:09;18.25;;;11.20;;
4808;SDS011;2418;49.930;8.606;2022-12-07T09:57:37;13.23;;;11.35;;
4808;SDS011;2418;49.930;8.606;2022-12-07T10:00:05;17.37;;;11.93;;
4808;SDS011;2418;49.930;8.606;2022-12-07T10:02:37;14.07;;;11.23;;
4808;SDS011;2418;49.930;8.606;2022-12-07T10:05:30;13.63;;;10.15;;
4808;SDS011;2418;49.930;8.606;2022-12-07T10:08:10;12.40;;;11.07;;
4808;SDS011;2418;49.930;8.606;2022-12-07T10:10:38;14.90;;;10.40;;
4808;SDS011;2418;49.930;8.606;2022-12-07T10:21:05;10.77;;;9.25;;
4808;SDS011;2418;49.930;8.606;2022-12-07T10:26:50;11.35;;;8.45;;
4808;SDS011;2418;49.930;8.606;2022-12-07T10:32:21;9.73;;;8.73;;
4808;SDS011;2418;49.930;8.606;2022-12-07T10:34:51;11.27;;;9.25;;
4808;SDS011;2418;49.930;8.606;2022-12-07T10:37:57;9.00;;;8.10;;
4808;SDS011;2418;49.930;8.606;2022-12-07T10:40:31;11.93;;;9.20;;
4808;SDS011;2418;49.930;8.606;2022-12-07T10:43:06;10.10;;;8.63;;
4808;SDS011;2418;49.930;8.606;2022-12-07T10:57:22;10.10;;;8.70;;
4808;SDS011;2418;49.930;8.606;2022-12-07T11:00:22;10.43;;;8.98;;
4808;SDS011;2418;49.930;8.606;2022-12-07T11:05:39;9.98;;;8.98;;
4808;SDS011;2418;49.930;8.606;2022-12-07T11:11:41;12.55;;;8.63;;
4808;SDS011;2418;49.930;8.606;2022-12-07T11:16:56;12.77;;;8.82;;
4808;SDS011;2418;49.930;8.606;2022-12-07T11:20:01;10.70;;;7.40;;
4808;SDS011;2418;49.930;8.606;2022-12-07T11:25:31;9.00;;;8.10;;
4808;SDS011;2418;49.930;8.606;2022-12-07T11:31:12;9.07;;;8.10;;
4808;SDS011;2418;49.930;8.606;2022-12-07T11:36:43;14.00;;;9.40;;
4808;SDS011;2418;49.930;8.606;2022-12-07T11:42:05;10.50;;;8.70;;
4808;SDS011;2418;49.930;8.606;2022-12-07T11:44:50;9.98;;;8.05;;
4808;SDS011;2418;49.930;8.606;2022-12-07T11:47:40;12.20;;;8.30;;
4808;SDS011;2418;49.930;8.606;2022-12-07T11:53:03;13.35;;;8.35;;
4808;SDS011;2418;49.930;8.606;2022-12-07T11:55:48;7.57;;;6.35;;
4808;SDS011;2418;49.930;8.606;2022-12-07T12:03:54;6.70;;;5.90;;
4808;SDS011;2418;49.930;8.606;2022-12-07T12:06:24;6.63;;;5.17;;
4808;SDS011;2418;49.930;8.606;2022-12-07T12:08:53;5.00;;;4.50;;
4808;SDS011;2418;49.930;8.606;2022-12-07T12:17:15;4.97;;;4.57;;
4808;SDS011;2418;49.930;8.606;2022-12-07T12:23:09;5.15;;;3.30;;
4808;SDS011;2418;49.930;8.606;2022-12-07T12:25:54;4.65;;;3.10;;
4808;SDS011;2418;49.930;8.606;2022-12-07T12:31:11;4.78;;;2.90;;
4808;SDS011;2418;49.930;8.606;2022-12-07T12:33:52;2.85;;;2.58;;
4808;SDS011;2418;49.930;8.606;2022-12-07T12:36:46;5.22;;;3.10;;
4808;SDS011;2418;49.930;8.606;2022-12-07T12:39:18;3.38;;;3.00;;
4808;SDS011;2418;49.930;8.606;2022-12-07T12:42:00;4.20;;;3.90;;
4808;SDS011;2418;49.930;8.606;2022-12-07T12:47:02;3.40;;;3.10;;
4808;SDS011;2418;49.930;8.606;2022-12-07T12:49:42;3.35;;;3.05;;
4808;SDS011;2418;49.930;8.606;2022-12-07T12:57:34;2.28;;;2.05;;
4808;SDS011;2418;49.930;8.606;2022-12-07T13:05:18;3.80;;;1.70;;
4808;SDS011;2418;49.930;8.606;2022-12-07T13:07:58;2.50;;;1.70;;
4808;SDS011;2418;49.930;8.606;2022-12-07T13:15:52;3.20;;;2.70;;
4808;SDS011;2418;49.930;8.606;2022-12-07T13:18:38;3.20;;;2.20;;
4808;SDS011;2418;49.930;8.606;2022-12-07T13:23:36;6.07;;;2.17;;
4808;SDS011;2418;49.930;8.606;2022-12-07T13:37:12;2.70;;;1.50;;
4808;SDS011;2418;49.930;8.606;2022-12-07T13:39:46;3.47;;;1.75;;
4808;SDS011;2418;49.930;8.606;2022-12-07T13:44:59;2.53;;;1.45;;
4808;SDS011;2418;49.930;8.606;2022-12-07T13:52:55;2.60;;;1.60;;
4808;SDS011;2418;49.930;8.606;2022-12-07T13:55:26;2.70;;;1.73;;
4808;SDS011;2418;49.930;8.606;2022-12-07T13:57:57;2.05;;;1.80;;
4808;SDS011;2418;49.930;8.606;2022-12-07T14:00:24;4.63;;;2.20;;
4808;SDS011;2418;49.930;8.606;2022-12-07T14:02:56;3.70;;;1.60;;
4808;SDS011;2418;49.930;8.606;2022-12-07T14:05:42;6.30;;;1.40;;
4808;SDS011;2418;49.930;8.606;2022-12-07T14:16:06;2.28;;;1.20;;
4808;SDS011;2418;49.930;8.606;2022-12-07T14:18:53;2.60;;;2.40;;
4808;SDS011;2418;49.930;8.606;2022-12-07T14:21:21;3.33;;;1.80;;
4808;SDS011;2418;49.930;8.606;2022-12-07T14:26:53;4.00;;;1.85;;
4808;SDS011;2418;49.930;8.606;2022-12-07T14:29:28;3.80;;;1.90;;
4808;SDS011;2418;49.930;8.606;2022-12-07T14:32:10;2.80;;;2.35;;
4808;SDS011;2418;49.930;8.606;2022-12-07T14:34:55;4.00;;;1.70;;
4808;SDS011;2418;49.930;8.606;2022-12-07T14:37:33;5.18;;;1.60;;
4808;SDS011;2418;49.930;8.606;2022-12-07T14:39:59;4.05;;;2.08;;
4808;SDS011;2418;49.930;8.606;2022-12-07T14:42:26;4.07;;;1.60;;
4808;SDS011;2418;49.930;8.606;2022-12-07T14:44:54;5.00;;;1.75;;
4808;SDS011;2418;49.930;8.606;2022-12-07T14:47:21;4.05;;;2.20;;
4808;SDS011;2418;49.930;8.606;2022-12-07T14:49:48;4.15;;;3.33;;
4808;SDS011;2418;49.930;8.606;2022-12-07T14:52:19;4.93;;;2.80;;
4808;SDS011;2418;49.930;8.606;2022-12-07T14:54:50;3.90;;;1.98;;
4808;SDS011;2418;49.930;8.606;2022-12-07T14:57:16;4.50;;;2.20;;
4808;SDS011;2418;49.930;8.606;2022-12-07T14:59:41;5.67;;;2.80;;
4808;SDS011;2418;49.930;8.606;2022-12-07T15:02:09;8.73;;;2.90;;
4808;SDS011;2418;49.930;8.606;2022-12-07T15:04:36;3.65;;;3.35;;
4808;SDS011;2418;49.930;8.606;2022-12-07T15:07:14;2.42;;;1.95;;
4808;SDS011;2418;49.930;8.606;2022-12-07T15:09:48;4.80;;;2.90;;
4808;SDS011;2418;49.930;8.606;2022-12-07T15:12:14;5.22;;;2.45;;
4808;SDS011;2418;49.930;8.606;2022-12-07T15:14:40;3.08;;;1.70;;
4808;SDS011;2418;49.930;8.606;2022-12-07T15:17:06;6.70;;;3.00;;
4808;SDS011;2418;49.930;8.606;2022-12-07T15:19:34;3.60;;;2.92;;
4808;SDS011;2418;49.930;8.606;2022-12-07T15:22:00;4.38;;;3.10;;
4808;SDS011;2418;49.930;8.606;2022-12-07T15:24:25;8.60;;;3.58;;
4808;SDS011;2418;49.930;8.606;2022-12-07T15:26:53;11.95;;;4.28;;
4808;SDS011;2418;49.930;8.606;2022-12-07T15:29:20;3.63;;;3.30;;
4808;SDS011;2418;49.930;8.606;2022-12-07T15:31:47;6.20;;;3.57;;
4808;SDS011;2418;49.930;8.606;2022-12-07T15:34:17;8.25;;;4.35;;
4808;SDS011;2418;49.930;8.606;2022-12-07T15:36:43;5.82;;;3.83;;
4808;SDS011;2418;49.930;8.606;2022-12-07T15:39:09;4.40;;;4.07;;
4808;SDS011;2418;49.930;8.606;2022-12-07T15:41:35;11.13;;;5.43;;
4808;SDS011;2418;49.930;8.606;2022-12-07T15:44:02;6.10;;;5.50;;
4808;SDS011;2418;49.930;8.606;2022-12-07T15:46:46;8.38;;;6.32;;
4808;SDS011;2418;49.930;8.606;2022-12-07T15:49:13;11.05;;;7.20;;
4808;SDS011;2418;49.930;8.606;2022-12-07T15:51:41;14.68;;;7.10;;
4808;SDS011;2418;49.930;8.606;2022-12-07T15:54:22;7.80;;;6.18;;
4808;SDS011;2418;49.930;8.606;2022-12-07T15:56:49;23.33;;;11.80;;
4808;SDS011;2418;49.930;8.606;2022-12-07T15:59:16;51.33;;;21.50;;
4808;SDS011;2418;49.930;8.606;2022-12-07T16:01:42;61.15;;;25.42;;
4808;SDS011;2418;49.930;8.606;2022-12-07T16:04:08;22.80;;;12.70;;
4808;SDS011;2418;49.930;8.606;2022-12-07T16:06:34;13.33;;;8.13;;
4808;SDS011;2418;49.930;8.606;2022-12-07T16:09:01;9.73;;;7.10;;
4808;SDS011;2418;49.930;8.606;2022-12-07T16:11:42;6.33;;;5.63;;
4808;SDS011;2418;49.930;8.606;2022-12-07T16:14:09;7.03;;;5.40;;
4808;SDS011;2418;49.930;8.606;2022-12-07T16:16:35;6.95;;;5.20;;
4808;SDS011;2418;49.930;8.606;2022-12-07T16:19:00;5.40;;;4.10;;
4808;SDS011;2418;49.930;8.606;2022-12-07T16:21:27;4.72;;;2.92;;
4808;SDS011;2418;49.930;8.606;2022-12-07T16:23:53;5.00;;;2.63;;
4808;SDS011;2418;49.930;8.606;2022-12-07T16:26:20;2.60;;;2.50;;
4808;SDS011;2418;49.930;8.606;2022-12-07T16:28:50;1.90;;;1.50;;
4808;SDS011;2418;49.930;8.606;2022-12-07T16:31:17;3.03;;;2.00;;
4808;SDS011;2418;49.930;8.606;2022-12-07T16:33:46;3.80;;;3.38;;
4808;SDS011;2418;49.930;8.606;2022-12-07T16:36:14;2.20;;;2.10;;
4808;SDS011;2418;49.930;8.606;2022-12-07T16:38:41;3.67;;;2.40;;
4808;SDS011;2418;49.930;8.606;2022-12-07T16:41:07;4.20;;;3.50;;
4808;SDS011;2418;49.930;8.606;2022-12-07T16:43:34;5.15;;;4.35;;
4808;SDS011;2418;49.930;8.606;2022-12-07T16:46:02;7.03;;;3.60;;
4808;SDS011;2418;49.930;8.606;2022-12-07T16:48:28;4.28;;;3.97;;
4808;SDS011;2418;49.930;8.606;2022-12-07T16:50:54;5.88;;;4.30;;
4808;SDS011;2418;49.930;8.606;2022-12-07T16:53:20;4.03;;;3.72;;
4808;SDS011;2418;49.930;8.606;2022-12-07T16:55:48;4.70;;;4.20;;
4808;SDS011;2418;49.930;8.606;2022-12-07T16:58:17;4.53;;;4.13;;
4808;SDS011;2418;49.930;8.606;2022-12-07T17:00:43;5.10;;;4.60;;
4808;SDS011;2418;49.930;8.606;2022-12-07T17:03:10;11.45;;;5.80;;
4808;SDS011;2418;49.930;8.606;2022-12-07T17:05:41;8.00;;;4.75;;
4808;SDS011;2418;49.930;8.606;2022-12-07T17:08:08;12.23;;;7.65;;
4808;SDS011;2418;49.930;8.606;2022-12-07T17:10:35;14.50;;;9.80;;
4808;SDS011;2418;49.930;8.606;2022-12-07T17:13:03;9.33;;;8.30;;
4808;SDS011;2418;49.930;8.606;2022-12-07T17:16:00;12.27;;;9.73;;
4808;SDS011;2418;49.930;8.606;2022-12-07T17:18:31;15.82;;;11.18;;
4808;SDS011;2418;49.930;8.606;2022-12-07T17:21:05;10.60;;;8.45;;
4808;SDS011;2418;49.930;8.606;2022-12-07T17:23:33;18.45;;;11.65;;
4808;SDS011;2418;49.930;8.606;2022-12-07T17:26:18;31.75;;;20.17;;
4808;SDS011;2418;49.930;8.606;2022-12-07T17:28:49;45.15;;;27.50;;
4808;SDS011;2418;49.930;8.606;2022-12-07T17:31:15;47.85;;;25.75;;
4808;SDS011;2418;49.930;8.606;2022-12-07T17:33:43;28.70;;;18.70;;
4808;SDS011;2418;49.930;8.606;2022-12-07T17:36:12;23.58;;;16.35;;
4808;SDS011;2418;49.930;8.606;2022-12-07T17:38:42;21.13;;;14.60;;
4808;SDS011;2418;49.930;8.606;2022-12-07T17:41:18;28.35;;;14.52;;
4808;SDS011;2418;49.930;8.606;2022-12-07T17:44:11;13.38;;;11.00;;
4808;SDS011;2418;49.930;8.606;2022-12-07T17:46:40;14.63;;;8.85;;
4808;SDS011;2418;49.930;8.606;2022-12-07T17:49:06;9.48;;;7.00;;
4808;SDS011;2418;49.930;8.606;2022-12-07T17:51:32;7.40;;;6.72;;